Time;durP1;ratioP1;P1;durP2;ratioP2;P2;SDS_P1;SDS_P2;PMS_P1;PMS_P2;Temp;Humidity;BMP_temperature;BMP_pressure;BME280_temperature;BME280_humidity;BME280_pressure;Samples;Min_cycle;Max_cycle;Signal;HPM_P1;HPM_P2
2023/12/15 00:04:17;;;;;;;;;;;4.20;99.90;;;;;;20901586;28;19912;-75
2023/12/15 00:14:18;;;;;;;;;;;4.20;99.90;;;;;;20895982;28;19917;-77
2023/12/15 00:24:19;;;;;;;;;;;4.00;99.90;;;;;;20900817;28;19987;-76
2023/12/15 00:34:19;;;;;;;;;;;4.00;99.90;;;;;;20899583;28;19913;-76
2023/12/15 00:44:20;;;;;;;;;;;4.00;99.90;;;;;;20915100;28;19917;-76
2023/12/15 00:54:21;;;;;;;;;;;3.90;99.90;;;;;;20907296;28;19916;-76
2023/12/15 01:04:21;;;;;;;;;;;3.90;99.90;;;;;;20902678;28;19912;-76
2023/12/15 01:14:22;;;;;;;;;;;3.90;99.90;;;;;;20913184;28;20408;-76
2023/12/15 01:24:23;;;;;;;;;;;3.90;99.90;;;;;;20900813;28;19928;-76
2023/12/15 01:34:23;;;;;;;;;;;3.90;99.90;;;;;;20890521;28;19921;-76
2023/12/15 01:44:25;;;;;;;;;;;3.90;99.90;;;;;;20882949;28;20032;-76
2023/12/15 01:54:26;;;;;;;;;;;3.90;99.90;;;;;;20883460;28;19952;-76
2023/12/15 02:04:26;;;;;;;;;;;4.10;99.90;;;;;;20880808;28;20289;-76
2023/12/15 02:14:29;;;;;;;;;;;4.10;99.90;;;;;;20880334;28;19948;-77
2023/12/15 02:24:29;;;;;;;;;;;3.90;99.90;;;;;;20901256;28;20297;-76
2023/12/15 02:34:30;;;;;;;;;;;3.60;99.90;;;;;;20902665;28;19913;-77
2023/12/15 02:44:31;;;;;;;;;;;3.50;99.90;;;;;;20901539;28;19959;-76
2023/12/15 02:54:31;;;;;;;;;;;3.70;99.90;;;;;;20906301;28;20339;-76
2023/12/15 03:04:32;;;;;;;;;;;3.70;99.90;;;;;;20903469;28;19913;-76
2023/12/15 03:14:33;;;;;;;;;;;3.70;99.90;;;;;;20905270;28;20388;-76
2023/12/15 03:24:33;;;;;;;;;;;3.90;99.90;;;;;;20904548;28;19917;-76
2023/12/15 03:34:34;;;;;;;;;;;4.00;99.90;;;;;;20903176;28;19916;-75
2023/12/15 03:44:39;;;;;;;;;;;4.10;99.90;;;;;;20903924;28;19913;-76
2023/12/15 03:54:40;;;;;;;;;;;4.00;99.90;;;;;;20903129;28;19912;-76
2023/12/15 04:04:41;;;;;;;;;;;3.90;99.90;;;;;;20899691;28;20327;-76
2023/12/15 04:14:42;;;;;;;;;;;4.00;99.90;;;;;;20886348;28;19908;-76
2023/12/15 04:24:43;;;;;;;;;;;4.00;99.90;;;;;;20896869;28;20284;-76
2023/12/15 04:34:44;;;;;;;;;;;4.00;99.90;;;;;;20916018;28;19916;-76
2023/12/15 04:44:44;;;;;;;;;;;4.00;99.90;;;;;;20913537;28;19999;-76
2023/12/15 04:54:45;;;;;;;;;;;4.10;99.90;;;;;;20915837;28;20374;-76
2023/12/15 05:04:46;;;;;;;;;;;4.10;99.90;;;;;;20913154;28;20384;-76
2023/12/15 05:14:46;;;;;;;;;;;4.10;99.90;;;;;;20911929;28;19942;-76
2023/12/15 05:24:47;;;;;;;;;;;4.10;99.90;;;;;;20895095;28;20343;-76
2023/12/15 05:34:47;;;;;;;;;;;4.00;99.90;;;;;;20911965;28;19919;-77
2023/12/15 05:44:48;;;;;;;;;;;4.10;99.90;;;;;;20911684;28;19956;-76
2023/12/15 05:54:49;;;;;;;;;;;4.20;99.90;;;;;;20911011;28;19912;-76
2023/12/15 06:04:49;;;;;;;;;;;4.20;99.90;;;;;;20908149;28;19919;-76
2023/12/15 06:14:50;;;;;;;;;;;4.20;99.90;;;;;;20908128;28;19916;-76
2023/12/15 06:24:51;;;;;;;;;;;4.20;99.90;;;;;;20908827;28;19966;-76
2023/12/15 06:34:51;;;;;;;;;;;4.20;99.90;;;;;;20904919;28;20011;-76
2023/12/15 06:44:52;;;;;;;;;;;4.20;99.90;;;;;;20905360;28;19920;-76
2023/12/15 06:54:53;;;;;;;;;;;4.30;99.90;;;;;;20903286;28;19951;-77
2023/12/15 07:04:53;;;;;;;;;;;4.20;99.90;;;;;;20895747;28;20380;-76
2023/12/15 07:14:54;;;;;;;;;;;4.20;99.90;;;;;;20905319;28;20373;-76
2023/12/15 07:24:55;;;;;;;;;;;4.20;99.90;;;;;;20897601;28;19966;-76
2023/12/15 07:34:57;;;;;;;;;;;4.10;99.90;;;;;;20901566;28;20581;-75
2023/12/15 07:44:58;;;;;;;;;;;4.30;99.90;;;;;;20907666;28;20401;-76
2023/12/15 07:54:59;;;;;;;;;;;4.30;99.90;;;;;;20905473;28;19950;-76
2023/12/15 08:04:59;;;;;;;;;;;4.40;99.90;;;;;;20918830;28;20032;-76
2023/12/15 08:15:00;;;;;;;;;;;4.50;99.90;;;;;;20918442;28;19943;-77
2023/12/15 08:25:01;;;;;;;;;;;4.50;99.90;;;;;;20897584;28;19913;-77
2023/12/15 08:35:02;;;;;;;;;;;4.60;99.90;;;;;;20905186;28;19912;-76
2023/12/15 08:45:03;;;;;;;;;;;4.70;99.90;;;;;;20900833;28;19955;-75
2023/12/15 08:55:03;;;;;;;;;;;4.70;99.90;;;;;;20914557;28;19909;-76
2023/12/15 09:05:04;;;;;;;;;;;4.80;99.90;;;;;;20894190;28;20029;-77
2023/12/15 09:15:05;;;;;;;;;;;4.60;99.90;;;;;;20913696;28;20003;-76
2023/12/15 09:25:06;;;;;;;;;;;4.90;99.90;;;;;;20903132;28;19927;-76
2023/12/15 09:35:07;;;;;;;;;;;5.20;99.90;;;;;;20906378;28;19958;-77
2023/12/15 09:45:08;;;;;;;;;;;5.50;99.90;;;;;;20905452;28;19942;-76
2023/12/15 09:55:09;;;;;;;;;;;5.70;99.90;;;;;;20903919;28;19909;-76
2023/12/15 10:05:10;;;;;;;;;;;6.50;99.90;;;;;;20905364;28;20258;-77
2023/12/15 10:15:10;;;;;;;;;;;9.20;99.90;;;;;;20908277;28;19908;-77
2023/12/15 10:25:21;;;;;;;;;;;10.10;99.90;;;;;;20890201;28;19960;-76
2023/12/15 10:35:25;;;;;;;;;;;9.20;99.90;;;;;;20902863;28;19912;-75
2023/12/15 10:45:26;;;;;;;;;;;10.10;99.90;;;;;;20887062;28;19919;-76
2023/12/15 10:55:28;;;;;;;;;;;10.40;99.90;;;;;;20902682;28;19912;-76
2023/12/15 11:05:29;;;;;;;;;;;10.20;99.90;;;;;;20902681;28;19913;-76
2023/12/15 11:15:30;;;;;;;;;;;10.20;99.90;;;;;;20904270;28;19915;-76
2023/12/15 11:25:32;;;;;;;;;;;8.50;99.90;;;;;;20903785;28;19988;-76
2023/12/15 11:35:32;;;;;;;;;;;7.30;99.90;;;;;;20899896;28;19912;-76
2023/12/15 11:45:33;;;;;;;;;;;7.50;99.90;;;;;;20904694;28;20053;-76
2023/12/15 11:55:34;;;;;;;;;;;7.20;99.90;;;;;;20905054;28;20008;-76
2023/12/15 12:05:35;;;;;;;;;;;7.30;99.90;;;;;;20902894;28;20382;-76
2023/12/15 12:15:52;;;;;;;;;;;7.10;99.90;;;;;;20884438;28;19944;-77
2023/12/15 12:25:53;;;;;;;;;;;7.30;99.90;;;;;;20898674;28;19948;-76
2023/12/15 12:35:53;;;;;;;;;;;7.70;99.90;;;;;;20908623;28;20372;-77
2023/12/15 12:45:54;;;;;;;;;;;8.40;99.90;;;;;;20918783;28;19935;-77
2023/12/15 12:55:55;;;;;;;;;;;7.90;99.90;;;;;;20915983;28;20411;-76
2023/12/15 13:05:55;;;;;;;;;;;7.80;99.90;;;;;;20893043;28;19912;-76
2023/12/15 13:15:56;;;;;;;;;;;7.80;99.90;;;;;;20914151;28;19915;-76
2023/12/15 13:25:57;;;;;;;;;;;8.70;99.90;;;;;;20907552;28;19920;-77
2023/12/15 13:35:58;;;;;;;;;;;10.00;99.90;;;;;;20910540;28;19917;-75
2023/12/15 13:45:59;;;;;;;;;;;10.00;99.90;;;;;;20911285;28;19920;-77
2023/12/15 13:56:00;;;;;;;;;;;9.40;99.90;;;;;;20890342;28;19977;-76
2023/12/15 14:06:00;;;;;;;;;;;10.30;99.90;;;;;;20886710;28;19940;-76
2023/12/15 14:16:01;;;;;;;;;;;9.40;99.90;;;;;;20908944;28;19917;-76
2023/12/15 14:26:03;;;;;;;;;;;8.80;99.90;;;;;;20922875;28;20357;-78
2023/12/15 14:36:04;;;;;;;;;;;9.00;99.90;;;;;;20915115;28;19912;-77
2023/12/15 14:46:04;;;;;;;;;;;9.90;99.90;;;;;;20912450;28;19913;-77
2023/12/15 14:56:08;;;;;;;;;;;9.80;99.90;;;;;;20875470;28;19912;-76
2023/12/15 15:06:09;;;;;;;;;;;8.70;99.90;;;;;;20900417;28;19913;-77
2023/12/15 15:16:10;;;;;;;;;;;8.10;99.90;;;;;;20907055;28;19915;-75
2023/12/15 15:26:10;;;;;;;;;;;8.20;99.90;;;;;;20906749;28;19912;-78
2023/12/15 15:36:11;;;;;;;;;;;7.60;99.90;;;;;;20879768;28;20365;-78
2023/12/15 15:46:18;;;;;;;;;;;7.30;99.90;;;;;;20906311;28;19913;-77
2023/12/15 15:56:20;;;;;;;;;;;7.40;99.90;;;;;;20896503;28;20316;-73
2023/12/15 16:06:23;;;;;;;;;;;6.80;99.90;;;;;;20902813;28;19919;-77
2023/12/15 16:16:26;;;;;;;;;;;6.90;99.90;;;;;;20926561;28;19959;-75
2023/12/15 16:26:26;;;;;;;;;;;6.70;99.90;;;;;;20910944;28;19917;-76
2023/12/15 16:36:27;;;;;;;;;;;6.40;99.90;;;;;;20910647;28;19939;-77
2023/12/15 16:46:28;;;;;;;;;;;6.20;99.90;;;;;;20915685;28;20173;-76
2023/12/15 16:56:28;;;;;;;;;;;5.90;99.90;;;;;;20889799;28;19924;-76
2023/12/15 17:06:29;;;;;;;;;;;5.90;99.90;;;;;;20909213;28;19920;-77
2023/12/15 17:16:30;;;;;;;;;;;5.90;99.90;;;;;;20913224;28;19943;-77
2023/12/15 17:26:30;;;;;;;;;;;6.10;99.90;;;;;;20893121;28;19919;-77
2023/12/15 17:36:36;;;;;;;;;;;5.80;99.90;;;;;;20905408;28;20046;-76
2023/12/15 17:46:36;;;;;;;;;;;5.60;99.90;;;;;;20894006;28;19916;-77
2023/12/15 17:56:37;;;;;;;;;;;5.70;99.90;;;;;;20903090;28;19944;-77
2023/12/15 18:06:38;;;;;;;;;;;5.30;99.90;;;;;;20904097;28;20348;-77
2023/12/15 18:16:38;;;;;;;;;;;4.90;99.90;;;;;;20892069;28;20373;-77
2023/12/15 18:26:39;;;;;;;;;;;4.90;99.90;;;;;;20899635;28;19920;-76
2023/12/15 18:36:40;;;;;;;;;;;5.00;99.90;;;;;;20902524;28;19913;-76
2023/12/15 18:46:41;;;;;;;;;;;5.10;99.90;;;;;;20907829;28;19912;-77
2023/12/15 18:56:44;;;;;;;;;;;4.90;99.90;;;;;;20896135;28;19931;-77
2023/12/15 19:06:45;;;;;;;;;;;4.50;99.90;;;;;;20907876;28;19916;-73
2023/12/15 19:16:47;;;;;;;;;;;4.30;99.90;;;;;;20922965;28;20003;-77
2023/12/15 19:26:48;;;;;;;;;;;3.70;99.90;;;;;;20911069;28;19948;-76
2023/12/15 19:36:48;;;;;;;;;;;3.40;99.90;;;;;;20917563;28;19920;-77
2023/12/15 19:46:49;;;;;;;;;;;3.30;99.90;;;;;;20934897;28;20004;-77
2023/12/15 19:56:50;;;;;;;;;;;3.30;99.90;;;;;;20907669;28;19943;-76
2023/12/15 20:06:52;;;;;;;;;;;3.00;99.90;;;;;;20899892;28;19913;-74
2023/12/15 20:16:53;;;;;;;;;;;2.70;99.90;;;;;;20900646;28;19962;-76
2023/12/15 20:26:53;;;;;;;;;;;2.40;99.90;;;;;;20909658;28;20007;-76
2023/12/15 20:36:54;;;;;;;;;;;2.10;99.90;;;;;;20908682;28;20140;-77
2023/12/15 20:46:54;;;;;;;;;;;2.20;99.90;;;;;;20915085;28;19913;-76
2023/12/15 20:56:55;;;;;;;;;;;1.90;99.90;;;;;;20897265;28;19913;-77
2023/12/15 21:06:56;;;;;;;;;;;1.70;99.90;;;;;;20899724;28;19963;-73
2023/12/15 21:17:00;;;;;;;;;;;1.70;99.90;;;;;;20904552;28;19978;-74
2023/12/15 21:27:02;;;;;;;;;;;1.60;99.90;;;;;;20890009;28;19920;-75
2023/12/15 21:37:03;;;;;;;;;;;1.60;99.90;;;;;;20901483;28;19952;-76
2023/12/15 21:47:04;;;;;;;;;;;1.30;99.90;;;;;;20896433;28;20285;-76
2023/12/15 21:57:07;;;;;;;;;;;1.20;99.90;;;;;;20898401;28;19909;-77
2023/12/15 22:07:08;;;;;;;;;;;1.10;99.90;;;;;;20899002;28;19913;-78
2023/12/15 22:17:12;;;;;;;;;;;1.00;99.90;;;;;;20920282;28;19916;-78
2023/12/15 22:27:12;;;;;;;;;;;1.10;99.90;;;;;;20918676;28;19939;-78
2023/12/15 22:37:13;;;;;;;;;;;1.40;99.90;;;;;;20908782;28;19913;-77
2023/12/15 22:47:14;;;;;;;;;;;1.20;99.90;;;;;;20912540;28;19919;-78
2023/12/15 22:57:15;;;;;;;;;;;1.50;99.90;;;;;;20912490;28;19916;-76
2023/12/15 23:07:16;;;;;;;;;;;0.90;99.90;;;;;;20909251;28;19970;-78
2023/12/15 23:17:16;;;;;;;;;;;1.00;99.90;;;;;;20905232;28;19909;-77
2023/12/15 23:27:17;;;;;;;;;;;1.40;99.90;;;;;;20900068;28;19947;-77
2023/12/15 23:37:19;;;;;;;;;;;1.50;99.90;;;;;;20898615;28;20385;-77
2023/12/15 23:47:19;;;;;;;;;;;1.40;99.90;;;;;;20900455;28;20296;-77
2023/12/15 23:57:20;;;;;;;;;;;1.40;99.90;;;;;;20880792;28;19962;-76
